createdAt,value
2019-03-06T00:00:48.759Z,100897.52
2019-03-06T00:03:18.529Z,100903.25
2019-03-06T00:05:47.823Z,100908.67
2019-03-06T00:08:17.300Z,100906.11
2019-03-06T00:10:46.603Z,100906.14
2019-03-06T00:13:15.993Z,100906.77
2019-03-06T00:15:45.681Z,100908.11
2019-03-06T00:18:14.961Z,100904.63
2019-03-06T00:20:44.254Z,100918.67
2019-03-06T00:23:13.764Z,100914.61
2019-03-06T00:25:43.007Z,100916.40
2019-03-06T00:28:12.528Z,100924.54
2019-03-06T00:30:42.169Z,100925.46
2019-03-06T00:33:11.458Z,100934.87
2019-03-06T00:35:44.489Z,100925.27
2019-03-06T00:38:14.087Z,100927.69
2019-03-06T00:41:08.294Z,100931.17
2019-03-06T00:43:37.510Z,100936.75
2019-03-06T00:46:06.798Z,100944.07
2019-03-06T00:48:36.203Z,100943.10
2019-03-06T00:51:05.507Z,100947.04
2019-03-06T00:53:34.883Z,100941.38
2019-03-06T00:56:04.266Z,100933.14
2019-03-06T00:58:33.506Z,100938.13
2019-03-06T01:01:02.810Z,100931.28
2019-03-06T01:03:32.259Z,100930.75
2019-03-06T01:06:01.557Z,100937.92
2019-03-06T01:08:30.918Z,100937.16
2019-03-06T01:11:00.503Z,100932.80
2019-03-06T01:13:29.819Z,100937.16
2019-03-06T01:15:59.161Z,100936.59
2019-03-06T01:18:29.138Z,100948.32
2019-03-06T01:20:58.389Z,100942.55
2019-03-06T01:23:27.865Z,100934.47
2019-03-06T01:25:57.245Z,100930.58
2019-03-06T01:28:26.601Z,100928.73
2019-03-06T01:30:55.929Z,100940.08
2019-03-06T01:33:47.158Z,100937.80
2019-03-06T01:36:38.138Z,100945.03
2019-03-06T01:39:42.712Z,100940.36
2019-03-06T01:42:29.594Z,100934.33
2019-03-06T01:45:02.228Z,100928.59
2019-03-06T01:47:31.605Z,100928.69
2019-03-06T01:50:00.934Z,100932.14
2019-03-06T01:52:30.298Z,100937.56
2019-03-06T01:54:59.873Z,100936.21
2019-03-06T01:57:29.116Z,100935.87
2019-03-06T01:59:58.592Z,100935.39
2019-03-06T02:02:27.955Z,100927.25
2019-03-06T02:04:57.300Z,100928.84
2019-03-06T02:07:26.846Z,100925.89
2019-03-06T02:09:56.085Z,100933.69
2019-03-06T02:12:25.389Z,100932.92
2019-03-06T02:14:54.816Z,100931.50
2019-03-06T02:17:24.135Z,100933.89
2019-03-06T02:19:53.660Z,100930.97
2019-03-06T02:22:22.949Z,100943.05
2019-03-06T02:24:52.247Z,100942.90
2019-03-06T02:27:21.577Z,100935.05
2019-03-06T02:29:51.149Z,100939.89
2019-03-06T02:32:20.462Z,100945.92
2019-03-06T02:34:49.763Z,100949.98
2019-03-06T02:37:19.020Z,100955.28
2019-03-06T02:39:48.365Z,100953.19
2019-03-06T02:42:17.706Z,100961.48
2019-03-06T02:44:47.455Z,100967.44
2019-03-06T02:47:16.789Z,100972.11
2019-03-06T02:49:46.073Z,100979.72
2019-03-06T02:52:15.478Z,100980.94
2019-03-06T02:54:44.800Z,100980.06
2019-03-06T02:57:14.373Z,100980.27
2019-03-06T03:00:17.651Z,100988.95
2019-03-06T03:03:12.075Z,100985.50
2019-03-06T03:05:46.725Z,100993.41
2019-03-06T03:08:16.011Z,100989.81
2019-03-06T03:10:45.362Z,100993.27
2019-03-06T03:13:14.885Z,100987.69
2019-03-06T03:15:44.193Z,100993.30
2019-03-06T03:18:13.537Z,100994.80
2019-03-06T03:20:42.976Z,100996.61
2019-03-06T03:23:12.484Z,100993.89
2019-03-06T03:25:41.716Z,100992.23
2019-03-06T03:28:11.018Z,100999.27
2019-03-06T03:30:40.345Z,101001.51
2019-03-06T03:33:09.713Z,100996.98
2019-03-06T03:35:39.300Z,100999.55
2019-03-06T03:38:08.641Z,100997.81
2019-03-06T03:40:37.915Z,101003.93
2019-03-06T03:43:07.438Z,101002.13
2019-03-06T03:45:36.741Z,100992.84
2019-03-06T03:48:06.081Z,101000.62
2019-03-06T03:50:35.622Z,101003.78
2019-03-06T03:53:05.022Z,101005.81
2019-03-06T03:55:34.334Z,101011.40
2019-03-06T03:58:03.921Z,101020.03
2019-03-06T04:00:33.404Z,101017.31
2019-03-06T04:03:03.009Z,101017.16
2019-03-06T04:05:32.375Z,101022.45
2019-03-06T04:08:01.642Z,101022.60
2019-03-06T04:10:30.957Z,101016.84
2019-03-06T04:13:00.466Z,101013.00
2019-03-06T04:15:29.751Z,101012.55
2019-03-06T04:17:59.013Z,101014.95
2019-03-06T04:20:28.364Z,101014.22
2019-03-06T04:22:57.732Z,101007.42
2019-03-06T04:25:27.081Z,100998.81
2019-03-06T04:27:56.442Z,101006.27
2019-03-06T04:30:25.718Z,101004.84
2019-03-06T04:32:54.994Z,100992.31
2019-03-06T04:35:24.659Z,100991.56
2019-03-06T04:37:53.975Z,100996.83
2019-03-06T04:40:23.307Z,100997.00
2019-03-06T04:42:52.771Z,101002.35
2019-03-06T04:55:45.177Z,101002.14
2019-03-06T04:58:14.454Z,100992.84
2019-03-06T05:00:43.824Z,100994.05
2019-03-06T05:03:13.186Z,100999.11
2019-03-06T05:05:42.441Z,101001.05
2019-03-06T05:08:11.802Z,101011.86
2019-03-06T05:10:41.234Z,101010.87
2019-03-06T05:13:10.531Z,101020.86
2019-03-06T05:15:39.815Z,101018.97
2019-03-06T05:18:26.762Z,101014.60
2019-03-06T05:20:56.082Z,101018.36
2019-03-06T05:23:25.420Z,101026.30
2019-03-06T05:25:54.927Z,101029.91
2019-03-06T05:28:24.245Z,101032.63
2019-03-06T05:30:53.530Z,101037.91
2019-03-06T05:33:23.296Z,101039.73
2019-03-06T05:36:48.572Z,101046.69
2019-03-06T05:39:18.123Z,101047.81
2019-03-06T05:41:47.386Z,101052.28
2019-03-06T05:44:16.730Z,101049.86
2019-03-06T05:46:46.270Z,101048.81
2019-03-06T05:49:15.488Z,101045.71
2019-03-06T05:51:44.797Z,101047.61
2019-03-06T05:54:14.364Z,101050.77
2019-03-06T05:56:43.702Z,101054.77
2019-03-06T05:59:12.989Z,101048.14
2019-03-06T06:01:42.480Z,101052.58
2019-03-06T06:04:11.743Z,101051.52
2019-03-06T06:06:41.048Z,101051.98
2019-03-06T06:09:10.665Z,101054.86
2019-03-06T06:11:40.306Z,101055.09
2019-03-06T06:14:09.564Z,101051.46
2019-03-06T06:16:38.928Z,101047.83
2019-03-06T06:19:08.261Z,101048.36
2019-03-06T06:22:05.445Z,101046.38
2019-03-06T06:24:34.798Z,101053.27
2019-03-06T06:27:04.195Z,101060.37
2019-03-06T06:29:33.677Z,101056.94
2019-03-06T06:32:03.161Z,101055.38
2019-03-06T06:34:32.477Z,101057.03
2019-03-06T06:37:01.879Z,101056.96
2019-03-06T06:39:31.236Z,101051.53
2019-03-06T06:42:00.555Z,101052.58
2019-03-06T06:44:30.243Z,101053.85
2019-03-06T06:46:59.580Z,101056.23
2019-03-06T06:49:28.926Z,101059.74
2019-03-06T06:52:27.029Z,101062.30
2019-03-06T06:55:23.914Z,101057.09
2019-03-06T06:58:31.844Z,101061.60
2019-03-06T07:01:57.419Z,101064.08
2019-03-06T07:05:20.390Z,101073.44
2019-03-06T07:08:04.626Z,101075.59
2019-03-06T07:10:59.193Z,101069.85
2019-03-06T07:13:41.139Z,101072.58
2019-03-06T07:16:28.010Z,101069.78
2019-03-06T07:19:22.004Z,101067.30
2019-03-06T07:21:58.710Z,101072.72
2019-03-06T07:24:49.709Z,101064.35
2019-03-06T07:27:25.111Z,101072.86
2019-03-06T07:30:07.368Z,101071.97
2019-03-06T07:32:55.712Z,101063.53
2019-03-06T07:36:01.029Z,101067.78
2019-03-06T07:38:30.790Z,101059.69
2019-03-06T07:41:30.873Z,101067.69
2019-03-06T07:44:18.039Z,101068.87
2019-03-06T07:47:04.609Z,101057.59
2019-03-06T07:49:58.979Z,101064.69
2019-03-06T07:52:35.813Z,101059.73
2019-03-06T07:55:23.499Z,101056.50
2019-03-06T07:58:28.058Z,101055.11
2019-03-06T08:00:57.601Z,101052.09
2019-03-06T08:03:42.924Z,101060.80
2019-03-06T08:06:12.274Z,101056.56
2019-03-06T08:08:41.790Z,101063.09
2019-03-06T08:11:18.165Z,101062.90
2019-03-06T08:13:53.032Z,101067.02
2019-03-06T08:16:41.378Z,101069.49
2019-03-06T08:19:28.069Z,101066.59
2019-03-06T08:22:15.251Z,101063.86
2019-03-06T08:25:06.579Z,101069.53
2019-03-06T08:27:36.046Z,101066.24
2019-03-06T08:30:08.090Z,101063.76
2019-03-06T08:32:37.629Z,101074.63
2019-03-06T08:35:08.683Z,101069.86
2019-03-06T08:37:38.045Z,101075.25
2019-03-06T08:40:07.627Z,101082.06
2019-03-06T08:42:36.980Z,101078.45
2019-03-06T08:45:07.707Z,101077.45
2019-03-06T08:47:56.005Z,101079.68
2019-03-06T08:50:47.486Z,101076.75
2019-03-06T08:53:21.363Z,101089.94
2019-03-06T08:56:09.753Z,101086.91
2019-03-06T08:59:03.406Z,101088.77
2019-03-06T09:02:15.317Z,101091.87
2019-03-06T09:04:52.776Z,101092.71
2019-03-06T09:07:41.174Z,101094.27
2019-03-06T09:10:45.456Z,101090.57
2019-03-06T09:13:40.132Z,101095.03
2019-03-06T09:16:31.400Z,101085.94
2019-03-06T09:19:18.664Z,101084.45
2019-03-06T09:21:53.417Z,101080.44
2019-03-06T09:24:44.355Z,101071.69
2019-03-06T09:27:26.505Z,101070.30
2019-03-06T09:30:16.267Z,101066.15
2019-03-06T09:33:09.712Z,101068.72
2019-03-06T09:35:45.145Z,101068.72
2019-03-06T09:38:23.155Z,101071.73
2019-03-06T09:41:12.217Z,101076.92
2019-03-06T09:43:58.921Z,101077.44
2019-03-06T09:46:45.878Z,101074.80
2019-03-06T09:49:24.890Z,101069.05
2019-03-06T09:52:31.600Z,101070.28
2019-03-06T09:55:28.780Z,101069.87
2019-03-06T09:58:17.285Z,101064.30
2019-03-06T10:01:08.428Z,101073.28
2019-03-06T10:04:08.749Z,101071.09
2019-03-06T10:06:56.960Z,101062.47
2019-03-06T10:09:48.448Z,101067.34
2019-03-06T10:12:47.285Z,101059.79
2019-03-06T10:15:25.428Z,101056.58
2019-03-06T10:18:13.625Z,101046.52
2019-03-06T10:20:43.120Z,101042.30
2019-03-06T10:23:12.405Z,101038.50
2019-03-06T10:25:41.733Z,101040.91
2019-03-06T10:28:11.244Z,101045.57
2019-03-06T10:30:40.630Z,101040.23
2019-03-06T10:33:09.920Z,101046.98
2019-03-06T10:35:39.464Z,101045.45
2019-03-06T10:38:16.422Z,101044.38
2019-03-06T10:40:40.635Z,101045.42
2019-03-06T10:43:10.021Z,101047.45
2019-03-06T10:45:41.763Z,101037.42
2019-03-06T10:48:10.455Z,101042.83
2019-03-06T10:50:39.780Z,101035.78
2019-03-06T10:53:09.129Z,101036.05
2019-03-06T10:55:38.625Z,101032.88
2019-03-06T10:58:07.895Z,101038.84
2019-03-06T11:00:41.244Z,101028.84
2019-03-06T11:03:10.495Z,101023.69
2019-03-06T11:05:39.828Z,101020.03
2019-03-06T11:08:09.389Z,101025.77
2019-03-06T11:10:38.777Z,101022.88
2019-03-06T11:13:11.350Z,101016.86
2019-03-06T11:15:41.267Z,101025.72
2019-03-06T11:18:11.568Z,101014.33
2019-03-06T11:20:41.647Z,101018.66
2019-03-06T11:23:11.246Z,101012.05
2019-03-06T11:25:41.069Z,101011.28
2019-03-06T11:28:10.972Z,100999.56
2019-03-06T11:30:51.580Z,101001.58
2019-03-06T11:33:22.069Z,100996.55
2019-03-06T11:35:52.229Z,100989.95
2019-03-06T11:38:21.942Z,100987.30
2019-03-06T11:40:51.460Z,100976.61
2019-03-06T11:43:20.796Z,100975.63
2019-03-06T11:45:50.053Z,100978.18
2019-03-06T11:48:20.053Z,100972.55
2019-03-06T11:50:49.658Z,100973.73
2019-03-06T11:53:19.011Z,100975.01
2019-03-06T11:55:48.549Z,100969.45
2019-03-06T11:58:18.582Z,100969.84
2019-03-06T12:00:48.239Z,100962.34
2019-03-06T12:03:20.802Z,100963.65
2019-03-06T12:05:50.512Z,100961.87
2019-03-06T12:08:20.048Z,100970.03
2019-03-06T12:10:50.764Z,100958.69
2019-03-06T12:13:20.283Z,100959.02
2019-03-06T12:15:50.787Z,100956.98
2019-03-06T12:18:21.206Z,100956.13
2019-03-06T12:20:50.598Z,100952.41
2019-03-06T12:23:19.941Z,100939.88
2019-03-06T12:25:49.292Z,100934.00
2019-03-06T12:28:18.680Z,100928.59
2019-03-06T12:30:48.120Z,100925.58
2019-03-06T12:33:25.918Z,100916.39
2019-03-06T12:35:55.221Z,100911.19
2019-03-06T12:38:24.678Z,100902.84
2019-03-06T12:40:54.441Z,100904.98
2019-03-06T12:43:23.935Z,100904.22
2019-03-06T12:46:23.014Z,100900.05
2019-03-06T12:48:47.320Z,100896.39
2019-03-06T12:51:16.863Z,100880.80
2019-03-06T12:53:46.251Z,100883.55
2019-03-06T12:56:15.535Z,100874.91
2019-03-06T12:58:44.906Z,100879.98
2019-03-06T13:01:14.223Z,100874.95
2019-03-06T13:03:43.522Z,100867.58
2019-03-06T13:06:13.099Z,100872.97
2019-03-06T13:08:49.848Z,100860.75
2019-03-06T13:11:13.543Z,100864.66
2019-03-06T13:13:43.025Z,100866.07
2019-03-06T13:16:12.460Z,100863.56
2019-03-06T13:18:41.835Z,100866.02
2019-03-06T13:21:11.403Z,100861.88
2019-03-06T13:23:40.829Z,100859.47
2019-03-06T13:26:10.865Z,100847.70
2019-03-06T13:28:40.457Z,100834.34
2019-03-06T13:31:09.777Z,100836.67
2019-03-06T13:33:56.680Z,100832.66
2019-03-06T13:36:26.033Z,100820.77
2019-03-06T13:39:05.762Z,100825.75
2019-03-06T13:41:26.684Z,100817.23
2019-03-06T13:43:56.051Z,100822.90
2019-03-06T13:46:25.412Z,100813.67
2019-03-06T13:48:54.840Z,100814.06
2019-03-06T13:51:24.414Z,100813.36
2019-03-06T13:53:53.724Z,100816.79
2019-03-06T13:56:23.258Z,100803.91
2019-03-06T13:58:52.596Z,100806.95
2019-03-06T14:01:21.956Z,100793.30
2019-03-06T14:03:51.453Z,100784.04
2019-03-06T14:06:20.919Z,100781.42
2019-03-06T14:08:50.232Z,100772.82
2019-03-06T14:11:19.679Z,100772.50
2019-03-06T14:13:49.010Z,100762.34
2019-03-06T14:16:18.507Z,100762.57
2019-03-06T14:18:47.920Z,100755.25
2019-03-06T14:21:17.228Z,100756.06
2019-03-06T14:23:46.516Z,100750.84
2019-03-06T14:26:15.977Z,100750.45
2019-03-06T14:28:45.274Z,100746.14
2019-03-06T14:31:16.610Z,100745.27
2019-03-06T14:33:45.970Z,100744.54
2019-03-06T14:36:15.199Z,100747.77
2019-03-06T14:38:44.631Z,100743.17
2019-03-06T14:41:14.005Z,100748.80
2019-03-06T14:43:43.387Z,100738.25
2019-03-06T14:46:16.528Z,100742.80
2019-03-06T14:48:44.115Z,100736.17
2019-03-06T14:51:14.039Z,100742.29
2019-03-06T14:53:43.301Z,100743.94
2019-03-06T14:56:12.703Z,100732.45
2019-03-06T14:58:42.310Z,100737.38
2019-03-06T15:01:11.800Z,100732.13
2019-03-06T15:03:41.372Z,100733.33
2019-03-06T15:06:12.581Z,100728.91
2019-03-06T15:08:41.674Z,100715.09
2019-03-06T15:11:11.058Z,100715.13
2019-03-06T15:13:40.544Z,100708.25
2019-03-06T15:16:09.893Z,100712.97
2019-03-06T15:18:39.476Z,100709.41
2019-03-06T15:21:08.853Z,100694.07
2019-03-06T15:23:38.141Z,100687.86
2019-03-06T15:26:07.591Z,100687.84
2019-03-06T15:28:36.910Z,100681.03
2019-03-06T15:31:06.320Z,100684.89
2019-03-06T15:33:35.764Z,100675.69
2019-03-06T15:36:05.610Z,100673.76
2019-03-06T15:38:35.230Z,100674.86
2019-03-06T15:41:05.155Z,100675.69
2019-03-06T15:43:34.519Z,100675.69
2019-03-06T15:46:03.907Z,100663.94
2019-03-06T15:48:33.374Z,100671.09
2019-03-06T15:51:02.946Z,100665.91
2019-03-06T15:53:32.343Z,100665.18
2019-03-06T15:56:01.604Z,100655.36
2019-03-06T15:58:30.983Z,100658.36
2019-03-06T16:01:00.512Z,100658.31
2019-03-06T16:03:29.966Z,100656.34
2019-03-06T16:05:59.343Z,100657.44
2019-03-06T16:08:29.341Z,100647.02
2019-03-06T16:10:58.764Z,100654.06
2019-03-06T16:13:28.082Z,100651.09
2019-03-06T16:15:57.753Z,100648.32
2019-03-06T16:18:27.299Z,100640.72
2019-03-06T16:20:56.579Z,100642.64
2019-03-06T16:23:26.101Z,100637.14
2019-03-06T16:25:55.887Z,100632.81
2019-03-06T16:28:25.201Z,100631.41
2019-03-06T16:30:54.665Z,100626.14
2019-03-06T16:33:24.247Z,100619.38
2019-03-06T16:35:53.562Z,100617.37
2019-03-06T16:38:22.871Z,100610.98
2019-03-06T16:40:52.455Z,100610.94
2019-03-06T16:43:21.983Z,100600.88
2019-03-06T16:45:51.276Z,100596.25
2019-03-06T16:48:20.717Z,100586.97
2019-03-06T16:50:50.280Z,100585.31
2019-03-06T16:53:19.831Z,100578.19
2019-03-06T16:55:49.278Z,100578.95
2019-03-06T16:58:18.652Z,100568.34
2019-03-06T17:00:48.619Z,100571.84
2019-03-06T17:03:18.204Z,100566.98
2019-03-06T17:05:48.448Z,100553.30
2019-03-06T17:08:17.777Z,100551.98
2019-03-06T17:10:47.391Z,100552.48
2019-03-06T17:13:16.809Z,100556.63
2019-03-06T17:15:46.140Z,100551.22
2019-03-06T17:18:15.927Z,100544.88
2019-03-06T17:20:45.321Z,100544.40
2019-03-06T17:23:14.655Z,100550.40
2019-03-06T17:25:44.207Z,100553.34
2019-03-06T17:28:13.502Z,100550.83
2019-03-06T17:30:43.214Z,100551.97
2019-03-06T17:33:13.334Z,100549.20
2019-03-06T17:35:42.847Z,100544.61
2019-03-06T17:38:12.513Z,100539.60
2019-03-06T17:40:42.126Z,100531.20
2019-03-06T17:43:11.643Z,100530.97
2019-03-06T17:45:41.379Z,100516.29
2019-03-06T17:48:11.003Z,100518.14
2019-03-06T17:50:40.303Z,100515.74
2019-03-06T17:53:09.704Z,100511.66
2019-03-06T17:55:39.142Z,100500.69
2019-03-06T17:58:08.519Z,100488.41
2019-03-06T18:00:49.844Z,100488.41
2019-03-06T18:03:23.842Z,100478.81
2019-03-06T18:05:53.362Z,100472.80
2019-03-06T18:08:22.662Z,100470.84
2019-03-06T18:10:52.144Z,100465.92
2019-03-06T18:13:21.604Z,100452.60
2019-03-06T18:15:50.959Z,100458.80
2019-03-06T18:18:20.262Z,100447.65
2019-03-06T18:20:49.802Z,100446.84
2019-03-06T18:23:19.126Z,100443.88
2019-03-06T18:25:48.702Z,100444.66
2019-03-06T18:28:18.108Z,100445.23
2019-03-06T18:30:47.456Z,100435.69
2019-03-06T18:33:16.778Z,100442.30
2019-03-06T18:35:46.185Z,100440.61
2019-03-06T18:38:15.477Z,100435.51
2019-03-06T18:40:45.049Z,100433.33
2019-03-06T18:43:14.443Z,100422.96
2019-03-06T18:45:43.791Z,100421.05
2019-03-06T18:48:13.155Z,100413.95
2019-03-06T18:50:42.739Z,100406.82
2019-03-06T18:53:11.994Z,100394.30
2019-03-06T18:55:41.487Z,100392.63
2019-03-06T18:58:12.974Z,100386.35
2019-03-06T19:00:42.182Z,100374.06
2019-03-06T19:03:11.514Z,100372.70
2019-03-06T19:05:41.204Z,100358.48
2019-03-06T19:08:10.458Z,100352.23
2019-03-06T19:10:39.782Z,100362.33
2019-03-06T19:13:09.288Z,100349.51
2019-03-06T19:15:38.568Z,100342.96
2019-03-06T19:18:07.929Z,100338.36
2019-03-06T19:20:37.422Z,100345.97
2019-03-06T19:23:06.721Z,100336.69
2019-03-06T19:25:36.001Z,100332.83
2019-03-06T19:28:07.007Z,100319.73
2019-03-06T19:30:36.294Z,100321.09
2019-03-06T19:33:05.792Z,100311.23
2019-03-06T19:35:35.317Z,100311.86
2019-03-06T19:38:04.617Z,100305.78
2019-03-06T19:40:33.907Z,100297.59
2019-03-06T19:43:03.183Z,100298.14
2019-03-06T19:45:32.569Z,100292.95
2019-03-06T19:48:01.926Z,100282.89
2019-03-06T19:50:31.194Z,100275.53
2019-03-06T19:53:00.478Z,100271.48
2019-03-06T19:55:29.821Z,100265.47
2019-03-06T19:58:01.037Z,100266.56
2019-03-06T20:00:30.740Z,100263.02
2019-03-06T20:03:00.381Z,100267.63
2019-03-06T20:05:35.403Z,100266.80
2019-03-06T20:08:08.512Z,100249.34
2019-03-06T20:10:38.321Z,100250.70
2019-03-06T20:13:07.800Z,100247.43
2019-03-06T20:15:37.426Z,100241.13
2019-03-06T20:18:07.048Z,100235.66
2019-03-06T20:20:36.438Z,100237.30
2019-03-06T20:23:05.729Z,100236.21
2019-03-06T20:25:37.150Z,100227.20
2019-03-06T20:28:06.590Z,100228.58
2019-03-06T20:30:36.344Z,100237.06
2019-03-06T20:33:05.878Z,100228.03
2019-03-06T20:35:35.232Z,100218.78
2019-03-06T20:38:04.793Z,100217.39
2019-03-06T20:40:34.049Z,100211.93
2019-03-06T20:43:03.472Z,100202.38
2019-03-06T20:45:34.445Z,100189.59
2019-03-06T20:48:03.755Z,100190.14
2019-03-06T20:50:34.565Z,100187.13
2019-03-06T20:53:04.217Z,100180.04
2019-03-06T20:55:33.463Z,100169.16
2019-03-06T20:58:03.026Z,100161.24
2019-03-06T21:00:32.488Z,100160.16
2019-03-06T21:03:01.748Z,100148.72
2019-03-06T21:05:31.086Z,100144.89
2019-03-06T21:08:00.518Z,100130.16
2019-03-06T21:10:29.890Z,100119.00
2019-03-06T21:12:59.152Z,100125.58
2019-03-06T21:15:28.664Z,100115.77
2019-03-06T21:17:58.054Z,100122.05
2019-03-06T21:20:27.321Z,100120.41
2019-03-06T21:22:56.770Z,100116.05
2019-03-06T21:25:26.178Z,100111.11
2019-03-06T21:27:55.468Z,100105.11
2019-03-06T21:30:29.462Z,100101.58
2019-03-06T21:32:58.876Z,100097.76
2019-03-06T21:35:28.194Z,100095.30
2019-03-06T21:37:57.657Z,100094.80
2019-03-06T21:40:26.967Z,100084.67
2019-03-06T21:42:56.256Z,100083.33
2019-03-06T21:45:25.775Z,100078.14
2019-03-06T21:47:55.117Z,100074.84
2019-03-06T21:50:24.389Z,100066.67
2019-03-06T21:52:53.805Z,100071.36
2019-03-06T21:55:23.122Z,100064.80
2019-03-06T21:57:52.474Z,100052.52
2019-03-06T22:00:22.336Z,100050.31
2019-03-06T22:02:51.612Z,100045.11
2019-03-06T22:05:20.961Z,100041.86
2019-03-06T22:07:51.424Z,100036.97
2019-03-06T22:10:20.866Z,100039.44
2019-03-06T22:12:50.143Z,100032.88
2019-03-06T22:15:19.798Z,100020.33
2019-03-06T22:17:49.119Z,100014.87
2019-03-06T22:20:18.978Z,100013.50
2019-03-06T22:22:48.430Z,100017.31
2019-03-06T22:25:18.192Z,100012.94
2019-03-06T22:27:50.123Z,100014.84
2019-03-06T22:30:22.228Z,100014.03
2019-03-06T22:32:50.936Z,100012.09
2019-03-06T22:35:20.409Z,100011.02
2019-03-06T22:37:49.697Z,100009.95
2019-03-06T22:40:19.425Z,99998.21
2019-03-06T22:42:48.733Z,100001.77
2019-03-06T22:45:18.041Z,99994.68
2019-03-06T22:47:47.540Z,99990.84
2019-03-06T22:50:16.941Z,99987.55
2019-03-06T22:52:46.229Z,99990.03
2019-03-06T22:55:16.256Z,99980.45
2019-03-06T22:57:45.578Z,99975.81
2019-03-06T23:00:44.431Z,99967.09
2019-03-06T23:03:14.640Z,99964.63
2019-03-06T23:05:43.996Z,99957.27
2019-03-06T23:08:14.515Z,99950.45
2019-03-06T23:10:43.813Z,99943.06
2019-03-06T23:13:13.382Z,99944.70
2019-03-06T23:15:43.088Z,99938.70
2019-03-06T23:18:12.445Z,99930.26
2019-03-06T23:20:41.837Z,99917.41
2019-03-06T23:23:11.422Z,99918.22
2019-03-06T23:25:40.695Z,99914.12
2019-03-06T23:28:09.973Z,99907.29
2019-03-06T23:30:39.410Z,99907.29
2019-03-06T23:33:08.823Z,99902.64
2019-03-06T23:35:38.139Z,99893.38
2019-03-06T23:38:07.408Z,99889.58
2019-03-06T23:40:36.677Z,99881.11
2019-03-06T23:43:06.120Z,99878.91
2019-03-06T23:45:35.538Z,99874.83
2019-03-06T23:48:04.939Z,99875.34
2019-03-06T23:50:34.233Z,99858.16
2019-03-06T23:53:07.690Z,99857.88
2019-03-06T23:55:37.047Z,99856.23
2019-03-06T23:58:06.303Z,99853.80
